Time;durP1;ratioP1;P1;durP2;ratioP2;P2;SDS_P1;SDS_P2;PMS_P1;PMS_P2;Temp;Humidity;BMP_temperature;BMP_pressure;BME280_temperature;BME280_humidity;BME280_pressure;Samples;Min_cycle;Max_cycle;Signal;HPM_P1;HPM_P2
2021/12/11 00:02:32;;;;;;;3.72;3.40;;;22.80;68.00;;;;;;5091589;28;20197;-46
2021/12/11 00:05:08;;;;;;;4.07;3.65;;;22.90;68.20;;;;;;5091438;28;20533;-43
2021/12/11 00:07:41;;;;;;;3.83;3.42;;;22.90;67.80;;;;;;5091269;28;20623;-45
2021/12/11 00:10:20;;;;;;;3.38;3.08;;;22.90;67.40;;;;;;5091389;28;20588;-45
2021/12/11 00:13:01;;;;;;;3.13;2.92;;;23.00;67.40;;;;;;5091195;28;20240;-47
2021/12/11 00:15:40;;;;;;;3.28;3.05;;;23.00;67.10;;;;;;5090912;28;20545;-46
2021/12/11 00:18:18;;;;;;;3.35;3.05;;;23.00;66.90;;;;;;5091016;28;20599;-50
2021/12/11 00:20:54;;;;;;;3.28;3.00;;;23.00;66.80;;;;;;5105001;22;20760;-51
2021/12/11 00:23:30;;;;;;;3.40;3.10;;;23.10;66.70;;;;;;5090506;28;20228;-49
2021/12/11 00:26:01;;;;;;;3.60;3.30;;;23.10;66.60;;;;;;5086714;28;20621;-51
2021/12/11 00:28:33;;;;;;;3.10;2.90;;;23.20;66.50;;;;;;5085492;28;20309;-51
2021/12/11 00:31:05;;;;;;;3.30;3.05;;;23.20;66.50;;;;;;5089268;28;20228;-50
2021/12/11 00:33:36;;;;;;;3.67;3.35;;;23.20;66.40;;;;;;5089810;28;20281;-50
2021/12/11 00:36:12;;;;;;;3.40;3.10;;;23.30;66.40;;;;;;5089855;28;20236;-54
2021/12/11 00:38:47;;;;;;;4.57;3.40;;;23.30;66.20;;;;;;5090024;28;20305;-51
2021/12/11 00:41:19;;;;;;;3.55;3.25;;;23.30;66.20;;;;;;5090111;28;20193;-51
2021/12/11 00:43:52;;;;;;;3.35;3.15;;;23.40;66.10;;;;;;5089895;28;20281;-52
2021/12/11 00:46:27;;;;;;;6.00;3.55;;;23.40;65.90;;;;;;5089741;28;20281;-52
2021/12/11 00:49:08;;;;;;;3.85;3.47;;;23.50;65.90;;;;;;5088976;28;20214;-50
2021/12/11 00:51:38;;;;;;;3.80;3.50;;;23.50;65.80;;;;;;5089071;28;20322;-51
2021/12/11 00:54:09;;;;;;;4.22;3.83;;;23.50;65.60;;;;;;5089336;28;20281;-48
2021/12/11 00:56:41;;;;;;;3.72;3.40;;;23.60;65.50;;;;;;5089401;28;20592;-50
2021/12/11 00:59:17;;;;;;;3.65;3.35;;;23.60;65.30;;;;;;5089635;28;20281;-51
2021/12/11 01:01:51;;;;;;;3.72;3.42;;;23.70;65.30;;;;;;5089166;28;20274;-53
2021/12/11 01:04:24;;;;;;;3.42;3.13;;;23.70;65.10;;;;;;5089737;28;20225;-50
2021/12/11 01:06:57;;;;;;;3.83;3.53;;;23.70;65.00;;;;;;5093777;28;20674;-51
2021/12/11 01:09:31;;;;;;;5.28;3.78;;;23.70;64.90;;;;;;5094145;28;20280;-52
2021/12/11 01:12:07;;;;;;;3.63;3.33;;;23.80;64.90;;;;;;5093638;28;20304;-54
2021/12/11 01:14:51;;;;;;;4.22;3.92;;;23.80;64.80;;;;;;5093387;28;20699;-52
2021/12/11 01:17:30;;;;;;;4.00;3.70;;;23.80;64.80;;;;;;5093562;28;20212;-52
2021/12/11 01:20:04;;;;;;;4.00;3.70;;;23.80;64.70;;;;;;5092918;28;20202;-53
2021/12/11 01:22:38;;;;;;;4.10;3.70;;;23.90;64.60;;;;;;5094216;28;20225;-51
2021/12/11 01:25:13;;;;;;;4.30;3.90;;;23.90;64.50;;;;;;5093732;28;20715;-53
2021/12/11 01:27:46;;;;;;;4.20;3.90;;;23.90;64.60;;;;;;5093590;28;20264;-53
2021/12/11 01:30:21;;;;;;;4.28;3.78;;;23.90;64.20;;;;;;5093553;28;20226;-52
2021/12/11 01:32:52;;;;;;;4.20;3.60;;;23.90;64.20;;;;;;5093539;28;20308;-53
2021/12/11 01:35:23;;;;;;;4.60;4.20;;;23.90;64.10;;;;;;5093159;28;20736;-53
2021/12/11 01:38:02;;;;;;;4.43;4.05;;;23.90;63.90;;;;;;5093513;28;20305;-53
2021/12/11 01:40:32;;;;;;;4.30;3.90;;;23.90;63.90;;;;;;5093397;28;20226;-52
2021/12/11 01:43:05;;;;;;;4.60;4.20;;;24.00;64.00;;;;;;5093608;28;20702;-52
2021/12/11 01:45:45;;;;;;;4.45;4.10;;;24.00;63.90;;;;;;5093205;28;20237;-55
2021/12/11 01:48:21;;;;;;;4.32;3.90;;;24.00;63.80;;;;;;5093328;28;20355;-52
2021/12/11 01:50:56;;;;;;;4.50;4.10;;;24.00;63.70;;;;;;5092607;28;20285;-51
2021/12/11 01:53:29;;;;;;;4.55;4.13;;;24.00;63.60;;;;;;5093341;28;20237;-53
2021/12/11 01:56:02;;;;;;;3.78;3.47;;;24.00;63.50;;;;;;5093307;28;20297;-53
2021/12/11 01:58:37;;;;;;;3.80;3.50;;;24.00;63.60;;;;;;5093305;28;20218;-53
2021/12/11 02:01:14;;;;;;;3.83;3.53;;;24.00;63.50;;;;;;5092971;28;20288;-52
2021/12/11 02:03:47;;;;;;;4.55;3.70;;;24.00;63.50;;;;;;5093203;28;20285;-53
2021/12/11 02:06:17;;;;;;;4.53;4.03;;;24.00;63.30;;;;;;5091703;28;20830;-52
2021/12/11 02:08:48;;;;;;;4.43;4.07;;;24.00;63.30;;;;;;5092306;28;20720;-54
2021/12/11 02:11:21;;;;;;;3.72;3.40;;;24.00;63.30;;;;;;5092734;28;20777;-52
2021/12/11 02:13:58;;;;;;;4.28;3.88;;;24.00;63.20;;;;;;5093086;28;20244;-53
2021/12/11 02:16:38;;;;;;;4.20;3.78;;;24.10;63.20;;;;;;5090996;28;20233;-52
2021/12/11 02:19:12;;;;;;;4.65;4.25;;;24.10;63.10;;;;;;5092414;28;20201;-48
2021/12/11 02:21:54;;;;;;;4.40;4.00;;;24.10;63.00;;;;;;5092628;28;20229;-51
2021/12/11 02:24:27;;;;;;;4.20;3.83;;;24.10;63.00;;;;;;5092505;28;20627;-51
2021/12/11 02:26:58;;;;;;;4.22;3.83;;;24.10;62.90;;;;;;5092124;28;20714;-52
2021/12/11 02:29:34;;;;;;;4.45;3.80;;;24.10;62.80;;;;;;5092549;28;20281;-53
2021/12/11 02:32:07;;;;;;;4.97;3.60;;;24.10;62.70;;;;;;5092362;28;20219;-51
2021/12/11 02:34:43;;;;;;;4.03;3.63;;;24.10;62.60;;;;;;5091962;28;20281;-54
2021/12/11 02:37:22;;;;;;;4.32;3.90;;;24.10;62.50;;;;;;5092070;28;20218;-51
2021/12/11 02:39:55;;;;;;;4.20;3.80;;;24.10;62.50;;;;;;5092409;28;20281;-49
2021/12/11 02:42:30;;;;;;;3.80;3.42;;;24.10;62.50;;;;;;5092410;28;20309;-50
2021/12/11 02:45:05;;;;;;;3.53;3.17;;;24.20;62.60;;;;;;5092155;28;20280;-49
2021/12/11 02:47:39;;;;;;;4.03;3.60;;;24.20;62.60;;;;;;5092064;28;20257;-54
2021/12/11 02:50:15;;;;;;;4.00;3.47;;;24.20;62.50;;;;;;5091727;28;20225;-53
2021/12/11 02:52:50;;;;;;;3.70;3.38;;;24.20;62.50;;;;;;5091914;28;20305;-53
2021/12/11 02:55:24;;;;;;;3.97;3.55;;;24.20;62.40;;;;;;5091886;28;20252;-55
2021/12/11 02:57:58;;;;;;;3.95;3.55;;;24.20;62.40;;;;;;5092232;28;20301;-52
2021/12/11 03:00:34;;;;;;;4.25;3.63;;;24.20;62.40;;;;;;5091784;28;20228;-49
2021/12/11 03:03:08;;;;;;;4.25;3.78;;;24.10;62.30;;;;;;5091266;28;20236;-54
2021/12/11 03:05:45;;;;;;;3.83;3.42;;;24.20;62.30;;;;;;5089877;28;20284;-51
2021/12/11 03:08:20;;;;;;;4.60;3.70;;;24.10;62.20;;;;;;5091650;28;20744;-52
2021/12/11 03:10:53;;;;;;;3.97;3.63;;;24.10;62.10;;;;;;5091856;28;20225;-53
2021/12/11 03:13:26;;;;;;;4.07;3.67;;;24.10;62.10;;;;;;5091445;28;20316;-51
2021/12/11 03:15:58;;;;;;;3.53;3.22;;;24.10;62.10;;;;;;5091388;28;20194;-54
2021/12/11 03:18:28;;;;;;;3.78;3.40;;;24.20;62.10;;;;;;5091411;28;20301;-52
2021/12/11 03:20:59;;;;;;;3.58;3.20;;;24.10;62.00;;;;;;5091056;28;20571;-51
2021/12/11 03:23:31;;;;;;;8.07;2.90;;;24.10;61.90;;;;;;5091903;28;20281;-43
2021/12/11 03:26:02;;;;;;;4.10;1.67;;;24.10;60.30;;;;;;5091120;28;20198;-51
2021/12/11 03:28:33;;;;;;;3.40;1.85;;;24.00;58.90;;;;;;5090401;28;20214;-50
2021/12/11 03:31:07;;;;;;;3.15;1.75;;;24.00;59.00;;;;;;5090648;28;20241;-48
2021/12/11 03:33:41;;;;;;;5.10;2.10;;;23.90;59.20;;;;;;5090313;28;20256;-50
2021/12/11 03:36:15;;;;;;;4.13;1.85;;;23.90;59.30;;;;;;5089711;28;20197;-54
2021/12/11 03:38:52;;;;;;;4.72;1.55;;;23.80;59.40;;;;;;5090424;28;20257;-54
2021/12/11 03:41:24;;;;;;;3.35;2.10;;;23.80;59.50;;;;;;5090640;28;20226;-55
2021/12/11 03:43:55;;;;;;;5.35;2.05;;;23.80;59.50;;;;;;5087983;28;20269;-54
2021/12/11 03:46:27;;;;;;;4.78;1.95;;;23.80;59.60;;;;;;5089125;28;20634;-55
2021/12/11 03:49:00;;;;;;;3.95;2.03;;;23.70;59.70;;;;;;5089574;28;20206;-53
2021/12/11 03:51:34;;;;;;;2.72;2.20;;;23.70;59.80;;;;;;5086889;28;20289;-54
2021/12/11 03:54:09;;;;;;;2.85;2.05;;;23.70;59.80;;;;;;5089955;28;20282;-53
2021/12/11 03:56:41;;;;;;;3.00;2.00;;;23.70;59.90;;;;;;5090029;28;20197;-51
2021/12/11 03:59:13;;;;;;;4.57;1.98;;;23.70;60.00;;;;;;5087732;28;20635;-54
2021/12/11 04:01:46;;;;;;;3.10;1.85;;;23.70;60.00;;;;;;5089459;28;20470;-53
2021/12/11 04:04:19;;;;;;;2.20;1.73;;;23.70;60.00;;;;;;5088111;28;20229;-53
2021/12/11 04:06:50;;;;;;;3.22;1.77;;;23.70;60.10;;;;;;5086302;28;20313;-49
2021/12/11 04:09:23;;;;;;;2.78;2.13;;;23.70;60.20;;;;;;5089520;28;20273;-54
2021/12/11 04:11:54;;;;;;;2.47;1.80;;;23.60;60.00;;;;;;5087289;28;20245;-52
2021/12/11 04:14:29;;;;;;;2.75;1.90;;;23.60;60.00;;;;;;5089978;28;20283;-51
2021/12/11 04:17:01;;;;;;;3.08;1.90;;;23.60;60.00;;;;;;5089351;28;20313;-49
2021/12/11 04:19:32;;;;;;;2.88;1.70;;;23.60;60.00;;;;;;5086718;28;20281;-50
2021/12/11 04:27:19;;;;;;;3.20;1.75;;;23.60;59.80;;;;;;5411151;22;20224;-49
2021/12/11 04:29:51;;;;;;;2.28;1.92;;;23.60;59.70;;;;;;5110462;28;20228;-45
2021/12/11 04:32:24;;;;;;;2.97;2.10;;;23.60;59.70;;;;;;5110375;28;20225;-50
2021/12/11 04:34:54;;;;;;;2.42;2.00;;;23.50;59.70;;;;;;5107393;28;20200;-44
2021/12/11 04:37:29;;;;;;;2.95;1.90;;;23.50;59.80;;;;;;5110257;28;20309;-48
2021/12/11 04:40:03;;;;;;;2.08;1.40;;;23.50;59.70;;;;;;5109814;28;20188;-44
2021/12/11 04:42:48;;;;;;;2.65;2.10;;;23.50;59.70;;;;;;5110049;28;20605;-44
2021/12/11 04:45:21;;;;;;;3.03;1.60;;;23.50;59.80;;;;;;5110405;28;20549;-46
2021/12/11 04:47:56;;;;;;;2.33;2.08;;;23.50;59.90;;;;;;5110128;28;20312;-45
2021/12/11 04:50:34;;;;;;;2.00;1.55;;;23.50;59.90;;;;;;5110501;28;20193;-47
2021/12/11 04:53:18;;;;;;;2.25;1.70;;;23.40;59.90;;;;;;5110205;28;20260;-46
2021/12/11 04:56:01;;;;;;;1.83;1.65;;;23.40;59.90;;;;;;5110217;28;20272;-45
2021/12/11 05:01:42;;;;;;;1.77;1.67;;;23.40;59.90;;;;;;5099145;28;20322;-45
2021/12/11 05:07:02;;;;;;;1.65;1.55;;;23.40;59.70;;;;;;5108972;28;20193;-44
2021/12/11 05:09:39;;;;;;;2.92;1.60;;;23.40;59.60;;;;;;5109760;28;20276;-51
2021/12/11 05:12:19;;;;;;;2.38;1.70;;;23.40;59.60;;;;;;5094395;28;20223;-45
2021/12/11 05:14:52;;;;;;;1.65;1.55;;;23.40;59.60;;;;;;5109643;28;20221;-45
2021/12/11 05:17:24;;;;;;;2.45;1.45;;;23.30;59.60;;;;;;5108153;28;20270;-44
2021/12/11 05:19:55;;;;;;;2.15;1.50;;;23.30;59.60;;;;;;5098220;28;20292;-45
2021/12/11 05:22:26;;;;;;;1.88;1.58;;;23.30;59.70;;;;;;5122403;22;20320;-53
2021/12/11 05:24:58;;;;;;;2.50;1.70;;;23.30;59.60;;;;;;5109590;28;20280;-48
2021/12/11 05:27:29;;;;;;;2.08;1.67;;;23.30;59.60;;;;;;5109016;28;20292;-50
2021/12/11 05:30:01;;;;;;;2.30;1.55;;;23.30;59.60;;;;;;5109588;28;20280;-47
2021/12/11 05:32:32;;;;;;;1.70;1.58;;;23.30;59.70;;;;;;5109433;28;20308;-54
2021/12/11 05:35:02;;;;;;;1.75;1.45;;;23.20;59.70;;;;;;5109838;28;20285;-58
2021/12/11 05:37:33;;;;;;;1.58;1.48;;;23.20;59.70;;;;;;5095583;28;20301;-57
2021/12/11 05:40:05;;;;;;;1.65;1.40;;;23.20;59.80;;;;;;5089240;28;20680;-48
2021/12/11 05:42:36;;;;;;;1.85;1.30;;;23.10;59.80;;;;;;5093397;28;20280;-50
2021/12/11 05:45:09;;;;;;;2.10;1.50;;;23.20;59.80;;;;;;5109411;28;20284;-50
2021/12/11 05:47:39;;;;;;;1.63;1.33;;;23.20;59.80;;;;;;5109850;28;20297;-59
2021/12/11 05:50:13;;;;;;;1.50;1.40;;;23.20;59.80;;;;;;5109893;28;20716;-51
2021/12/11 05:52:44;;;;;;;2.13;1.30;;;23.10;59.70;;;;;;5112312;28;20803;-50
2021/12/11 05:55:17;;;;;;;1.63;1.45;;;23.10;59.60;;;;;;5113379;28;20201;-51
2021/12/11 05:57:52;;;;;;;1.38;1.17;;;23.10;59.60;;;;;;5112645;28;20296;-53
2021/12/11 06:00:28;;;;;;;1.70;1.25;;;23.10;59.50;;;;;;5113190;28;20276;-47
2021/12/11 06:02:59;;;;;;;1.35;1.17;;;23.10;59.50;;;;;;5112660;28;20276;-46
2021/12/11 06:05:30;;;;;;;1.48;1.38;;;23.10;59.40;;;;;;5113426;28;20617;-58
2021/12/11 06:08:01;;;;;;;1.98;1.30;;;23.10;59.50;;;;;;5095760;28;20301;-54
2021/12/11 06:10:33;;;;;;;1.63;1.40;;;23.00;59.40;;;;;;5092934;28;20278;-55
2021/12/11 06:13:04;;;;;;;1.58;1.25;;;23.00;59.40;;;;;;5095061;28;20312;-47
2021/12/11 06:15:37;;;;;;;1.35;1.20;;;23.00;59.40;;;;;;5091203;28;20297;-48
2021/12/11 06:18:13;;;;;;;2.03;1.40;;;23.00;59.50;;;;;;5092467;28;20309;-48
2021/12/11 06:20:44;;;;;;;1.70;1.40;;;23.00;59.60;;;;;;5092836;28;20208;-53
2021/12/11 06:23:15;;;;;;;2.25;1.50;;;22.90;59.60;;;;;;5092988;28;20293;-51
2021/12/11 06:25:46;;;;;;;2.63;1.17;;;22.90;59.60;;;;;;5092041;28;20281;-50
2021/12/11 06:28:16;;;;;;;1.20;1.10;;;22.90;59.60;;;;;;5100381;28;20217;-51
2021/12/11 06:30:49;;;;;;;1.35;1.10;;;22.90;59.60;;;;;;5112135;27;20288;-48
2021/12/11 06:33:21;;;;;;;1.63;1.35;;;22.90;59.60;;;;;;5112628;28;20284;-48
2021/12/11 06:35:55;;;;;;;2.80;1.30;;;22.90;59.50;;;;;;5096636;28;20668;-57
2021/12/11 06:38:29;;;;;;;2.65;1.08;;;22.90;59.40;;;;;;5072018;28;20338;-49
2021/12/11 06:41:00;;;;;;;1.20;1.08;;;22.80;59.40;;;;;;5071969;28;20286;-51
2021/12/11 06:43:31;;;;;;;1.20;1.10;;;22.80;59.30;;;;;;5090818;28;20886;-58
2021/12/11 06:46:04;;;;;;;1.83;1.38;;;22.80;59.30;;;;;;5112468;28;20252;-58
2021/12/11 06:48:34;;;;;;;1.55;1.30;;;22.80;59.30;;;;;;5112243;28;20308;-52
2021/12/11 06:51:07;;;;;;;2.08;1.10;;;22.80;59.30;;;;;;5112368;28;20280;-59
2021/12/11 06:53:40;;;;;;;1.30;1.20;;;22.70;59.20;;;;;;5111795;28;20312;-49
2021/12/11 06:56:12;;;;;;;1.30;1.20;;;22.70;59.30;;;;;;5112275;27;20284;-53
2021/12/11 06:58:43;;;;;;;1.30;1.20;;;22.70;59.30;;;;;;5111770;28;20296;-50
2021/12/11 07:01:15;;;;;;;1.52;1.17;;;22.70;59.40;;;;;;5112076;28;20721;-54
2021/12/11 07:03:46;;;;;;;1.45;1.08;;;22.70;59.40;;;;;;5111355;28;20272;-52
2021/12/11 07:06:17;;;;;;;1.35;1.20;;;22.60;59.40;;;;;;5108456;28;20190;-58
2021/12/11 07:08:49;;;;;;;1.15;1.00;;;22.60;59.40;;;;;;5091172;28;20218;-49
2021/12/11 07:11:20;;;;;;;0.90;0.90;;;22.60;59.50;;;;;;5091059;28;20190;-49
2021/12/11 07:13:51;;;;;;;1.45;1.15;;;22.60;59.50;;;;;;5088366;28;20258;-46
2021/12/11 07:16:24;;;;;;;1.63;1.10;;;22.60;59.50;;;;;;5085248;28;20281;-48
2021/12/11 07:18:54;;;;;;;1.13;1.02;;;22.60;59.40;;;;;;5086651;28;20206;-56
2021/12/11 07:21:25;;;;;;;1.27;1.02;;;22.50;59.30;;;;;;5088026;28;20274;-51
2021/12/11 07:23:55;;;;;;;2.25;1.00;;;22.50;59.30;;;;;;5115886;22;20210;-45
2021/12/11 07:26:31;;;;;;;2.15;1.30;;;22.50;59.30;;;;;;5106150;28;20228;-49
2021/12/11 07:29:05;;;;;;;3.28;1.20;;;22.50;59.30;;;;;;5099535;28;20217;-52
2021/12/11 07:31:38;;;;;;;1.00;0.90;;;22.50;59.30;;;;;;5104807;28;20284;-42
2021/12/11 07:34:09;;;;;;;1.42;1.20;;;22.50;59.30;;;;;;5102841;28;20312;-42
2021/12/11 07:36:40;;;;;;;1.42;1.10;;;22.50;59.30;;;;;;5101869;28;20287;-47
2021/12/11 07:39:13;;;;;;;1.30;1.20;;;22.40;59.30;;;;;;5095502;28;20199;-47
2021/12/11 07:41:44;;;;;;;1.13;1.02;;;22.40;59.30;;;;;;5103165;28;20286;-54
2021/12/11 07:44:15;;;;;;;1.40;1.30;;;22.40;59.30;;;;;;5102363;28;20319;-44
2021/12/11 07:46:49;;;;;;;1.77;1.20;;;22.40;59.30;;;;;;5100322;28;20288;-44
2021/12/11 07:49:20;;;;;;;1.77;1.10;;;22.40;59.40;;;;;;5099034;28;20266;-54
2021/12/11 07:51:50;;;;;;;1.42;1.10;;;22.30;59.40;;;;;;5106856;28;20194;-49
2021/12/11 07:54:21;;;;;;;1.50;1.20;;;22.30;59.40;;;;;;5103799;28;20657;-50
2021/12/11 07:56:53;;;;;;;2.17;1.17;;;22.30;59.40;;;;;;5101501;28;20281;-47
2021/12/11 07:59:23;;;;;;;1.77;1.17;;;22.30;59.40;;;;;;5101433;28;20228;-51
2021/12/11 08:01:57;;;;;;;1.48;1.25;;;22.30;59.50;;;;;;5106118;28;20609;-51
2021/12/11 08:04:27;;;;;;;1.98;1.38;;;22.30;59.40;;;;;;5100258;28;20276;-49
2021/12/11 08:06:58;;;;;;;2.65;1.17;;;22.30;59.40;;;;;;5099645;28;20277;-45
2021/12/11 08:09:28;;;;;;;1.50;1.20;;;22.20;59.30;;;;;;5101490;27;20281;-51
2021/12/11 08:11:59;;;;;;;2.20;0.90;;;22.20;59.30;;;;;;5104245;28;20281;-45
2021/12/11 08:14:29;;;;;;;1.88;1.30;;;22.20;59.30;;;;;;5099819;28;20305;-44
2021/12/11 08:17:05;;;;;;;1.33;1.10;;;22.20;59.30;;;;;;5098794;28;20878;-49
2021/12/11 08:19:37;;;;;;;2.35;1.13;;;22.20;59.20;;;;;;5101977;28;20197;-46
2021/12/11 08:24:38;;;;;;;2.22;1.30;;;22.20;59.20;;;;;;5063030;28;20234;-59
2021/12/11 08:27:15;;;;;;;1.90;1.20;;;22.10;59.20;;;;;;5060313;28;20223;-56
2021/12/11 08:29:48;;;;;;;1.58;1.20;;;22.10;59.20;;;;;;5060074;28;20206;-52
2021/12/11 08:32:21;;;;;;;1.52;1.20;;;22.10;59.30;;;;;;5059789;28;20281;-54
2021/12/11 08:34:52;;;;;;;1.30;1.20;;;22.10;59.30;;;;;;5060688;28;20306;-57
2021/12/11 08:37:24;;;;;;;1.67;1.05;;;22.10;59.40;;;;;;5060506;28;20214;-51
2021/12/11 08:39:55;;;;;;;1.40;1.00;;;22.10;59.40;;;;;;5060891;28;20281;-56
2021/12/11 08:42:27;;;;;;;1.77;1.30;;;22.00;59.40;;;;;;5061525;28;21028;-55
2021/12/11 08:45:05;;;;;;;1.58;1.10;;;22.00;59.40;;;;;;5062431;28;20714;-49
2021/12/11 08:47:41;;;;;;;1.80;1.05;;;22.00;59.40;;;;;;5059234;28;20238;-51
2021/12/11 08:50:15;;;;;;;1.45;1.10;;;22.00;59.40;;;;;;5050201;28;20658;-52
2021/12/11 08:52:49;;;;;;;1.88;1.20;;;22.00;59.40;;;;;;5057360;28;21076;-50
2021/12/11 08:55:22;;;;;;;2.00;1.30;;;22.00;59.30;;;;;;5064315;28;20300;-46
2021/12/11 08:57:53;;;;;;;1.23;1.02;;;21.90;59.30;;;;;;5061085;28;20302;-56
2021/12/11 09:00:32;;;;;;;1.33;1.20;;;21.90;59.30;;;;;;5060351;28;21384;-58
2021/12/11 09:03:09;;;;;;;1.40;1.20;;;21.90;59.30;;;;;;5063275;28;20289;-59
2021/12/11 09:05:45;;;;;;;1.70;1.40;;;21.90;59.30;;;;;;5065397;28;20252;-57
2021/12/11 09:08:25;;;;;;;2.80;1.48;;;21.90;59.30;;;;;;5059998;28;20218;-49
2021/12/11 09:11:02;;;;;;;2.00;1.23;;;21.90;59.30;;;;;;5061341;28;20290;-52
2021/12/11 09:13:41;;;;;;;1.83;1.50;;;21.80;59.40;;;;;;5058701;28;20314;-56
2021/12/11 09:16:16;;;;;;;1.50;1.17;;;21.80;59.30;;;;;;5062456;28;20314;-48
2021/12/11 09:18:51;;;;;;;3.45;1.40;;;21.80;59.40;;;;;;5061522;28;20304;-51
2021/12/11 09:21:26;;;;;;;2.50;1.42;;;21.80;60.00;;;;;;5060063;28;20293;-50
2021/12/11 09:24:04;;;;;;;1.35;1.17;;;21.80;59.40;;;;;;5079783;22;20226;-45
2021/12/11 09:26:38;;;;;;;1.45;1.23;;;21.70;59.40;;;;;;5070201;28;20199;-50
2021/12/11 09:29:13;;;;;;;1.98;1.33;;;21.70;59.40;;;;;;5047842;28;20287;-47
2021/12/11 09:31:56;;;;;;;1.63;1.15;;;21.70;59.50;;;;;;5048983;28;20278;-48
2021/12/11 09:34:32;;;;;;;1.73;1.38;;;21.70;59.50;;;;;;5048198;28;20222;-49
2021/12/11 09:37:07;;;;;;;1.10;1.00;;;21.70;59.40;;;;;;5051694;28;20286;-46
2021/12/11 09:39:41;;;;;;;2.97;1.30;;;21.70;59.40;;;;;;5058648;28;20288;-48
2021/12/11 09:42:10;;;;;;;1.35;1.25;;;21.70;59.40;;;;;;5056578;28;20274;-43
2021/12/11 09:44:46;;;;;;;1.60;1.30;;;21.60;59.40;;;;;;5051062;28;20298;-53
2021/12/11 09:47:18;;;;;;;1.70;1.20;;;21.70;59.40;;;;;;5056977;28;20264;-46
2021/12/11 09:49:57;;;;;;;1.35;1.25;;;21.60;59.30;;;;;;5058499;28;20291;-46
2021/12/11 09:52:30;;;;;;;1.35;1.25;;;21.60;59.30;;;;;;5057512;28;20199;-45
2021/12/11 09:55:07;;;;;;;2.13;1.33;;;21.60;59.30;;;;;;5052270;28;20225;-47
2021/12/11 09:57:40;;;;;;;2.28;1.40;;;21.60;59.30;;;;;;5053411;28;20313;-47
2021/12/11 10:00:16;;;;;;;1.60;1.50;;;21.50;59.30;;;;;;5056880;28;20278;-45
2021/12/11 10:02:47;;;;;;;1.52;1.40;;;21.60;59.30;;;;;;5058133;28;20277;-54
2021/12/11 10:05:31;;;;;;;1.35;1.25;;;21.50;59.40;;;;;;5054176;28;20274;-46
2021/12/11 10:08:26;;;;;;;1.40;1.30;;;21.50;59.50;;;;;;5050082;28;20254;-49
2021/12/11 10:11:07;;;;;;;1.33;1.23;;;21.50;59.40;;;;;;5054942;28;20195;-49
2021/12/11 10:13:41;;;;;;;2.40;1.50;;;21.50;59.40;;;;;;5057089;28;20278;-45
2021/12/11 10:16:13;;;;;;;1.30;1.20;;;21.50;59.50;;;;;;5057534;28;20378;-50
2021/12/11 10:18:44;;;;;;;1.52;1.23;;;21.50;59.50;;;;;;5055594;28;20729;-47
2021/12/11 10:21:17;;;;;;;1.77;1.30;;;21.50;59.40;;;;;;5053590;28;20663;-46
2021/12/11 10:23:51;;;;;;;1.40;1.30;;;21.50;59.40;;;;;;5105152;22;20645;-55
2021/12/11 10:26:23;;;;;;;1.55;1.30;;;21.50;59.40;;;;;;5117983;27;20216;-56
2021/12/11 10:28:55;;;;;;;4.28;1.48;;;21.40;59.40;;;;;;5111956;27;20382;-57
2021/12/11 10:31:31;;;;;;;4.63;1.50;;;21.40;59.40;;;;;;5109607;27;20304;-58
2021/12/11 10:34:04;;;;;;;2.40;1.40;;;21.40;59.40;;;;;;5109868;27;20296;-55
2021/12/11 10:36:39;;;;;;;3.63;1.70;;;21.40;59.40;;;;;;5116303;27;20272;-58
2021/12/11 10:39:13;;;;;;;3.10;1.67;;;21.40;59.40;;;;;;5112628;27;20193;-55
2021/12/11 10:41:43;;;;;;;3.05;1.80;;;21.40;59.50;;;;;;5108818;27;20300;-52
2021/12/11 10:44:17;;;;;;;4.07;1.60;;;21.30;59.60;;;;;;5116753;27;20288;-58
2021/12/11 10:46:53;;;;;;;2.67;1.65;;;21.30;59.70;;;;;;5117133;27;20204;-58
2021/12/11 10:49:23;;;;;;;3.55;1.90;;;21.30;59.70;;;;;;5118811;27;20280;-57
2021/12/11 10:51:56;;;;;;;3.00;1.83;;;21.30;59.80;;;;;;5109958;27;20342;-57
2021/12/11 10:54:27;;;;;;;3.38;1.75;;;21.30;59.80;;;;;;5113732;27;20217;-55
2021/12/11 10:56:59;;;;;;;4.90;1.90;;;21.30;59.90;;;;;;5117386;27;20293;-56
2021/12/11 10:59:33;;;;;;;4.80;2.30;;;21.30;60.00;;;;;;5115848;27;20229;-58
2021/12/11 11:02:09;;;;;;;3.97;2.20;;;21.30;60.00;;;;;;5109204;28;20291;-58
2021/12/11 11:04:43;;;;;;;5.45;2.58;;;21.30;60.00;;;;;;5109449;28;20225;-57
2021/12/11 11:07:14;;;;;;;4.07;2.50;;;21.20;60.00;;;;;;5111651;27;20813;-57
2021/12/11 11:09:46;;;;;;;5.18;2.38;;;21.20;60.00;;;;;;5110234;28;20281;-57
2021/12/11 11:12:19;;;;;;;4.15;2.15;;;21.20;60.00;;;;;;5109615;28;20225;-57
2021/12/11 11:14:53;;;;;;;5.38;2.28;;;21.20;60.00;;;;;;5108915;28;20304;-55
2021/12/11 11:17:29;;;;;;;3.85;2.10;;;21.30;60.10;;;;;;5110828;28;20213;-55
2021/12/11 11:20:03;;;;;;;4.47;2.63;;;21.20;60.00;;;;;;5109975;28;20233;-55
2021/12/11 11:22:36;;;;;;;4.57;2.38;;;21.20;60.00;;;;;;5109348;28;20281;-57
2021/12/11 11:25:14;;;;;;;3.88;2.45;;;21.20;60.10;;;;;;5110564;27;20281;-55
2021/12/11 11:27:46;;;;;;;4.30;2.67;;;21.20;60.10;;;;;;5110341;27;20304;-58
2021/12/11 11:30:20;;;;;;;6.18;2.45;;;21.20;60.10;;;;;;5109789;28;20277;-57
2021/12/11 11:32:53;;;;;;;4.90;2.53;;;21.20;60.10;;;;;;5108434;28;20288;-55
2021/12/11 11:35:26;;;;;;;5.10;3.03;;;21.20;60.10;;;;;;5110358;27;20304;-58
2021/12/11 11:38:00;;;;;;;4.25;2.65;;;21.20;60.20;;;;;;5110343;28;20703;-58
2021/12/11 11:40:32;;;;;;;5.05;3.00;;;21.20;60.20;;;;;;5105311;27;20289;-52
2021/12/11 11:43:04;;;;;;;4.10;3.25;;;21.10;60.20;;;;;;5108957;28;20278;-57
2021/12/11 11:45:35;;;;;;;4.05;2.97;;;21.10;60.30;;;;;;5108652;27;20189;-53
2021/12/11 11:48:09;;;;;;;4.35;3.13;;;21.10;60.30;;;;;;5108058;28;20241;-51
2021/12/11 11:50:43;;;;;;;4.53;2.85;;;21.10;60.30;;;;;;5109769;28;20194;-55
2021/12/11 11:53:16;;;;;;;3.97;3.05;;;21.10;60.30;;;;;;5107885;28;20231;-55
2021/12/11 11:55:51;;;;;;;4.28;2.92;;;21.10;60.30;;;;;;5107911;28;20249;-54
2021/12/11 11:58:23;;;;;;;5.45;3.28;;;21.10;60.30;;;;;;5108238;27;20308;-52
2021/12/11 12:00:57;;;;;;;5.03;3.25;;;21.10;60.20;;;;;;5109462;28;20289;-54
2021/12/11 12:03:33;;;;;;;4.05;2.78;;;21.10;60.20;;;;;;5108034;28;20243;-50
2021/12/11 12:06:10;;;;;;;5.72;3.08;;;21.00;60.10;;;;;;5108246;28;20207;-54
2021/12/11 12:08:42;;;;;;;5.00;3.22;;;21.00;60.10;;;;;;5107824;28;20566;-53
2021/12/11 12:11:13;;;;;;;5.03;2.72;;;21.00;60.10;;;;;;5107485;27;20220;-57
2021/12/11 12:13:44;;;;;;;3.70;2.90;;;21.00;60.10;;;;;;5108106;28;20696;-51
2021/12/11 12:16:17;;;;;;;4.68;2.50;;;21.00;60.00;;;;;;5108457;27;20313;-54
2021/12/11 12:18:49;;;;;;;3.75;3.00;;;21.00;60.10;;;;;;5107442;28;20249;-57
2021/12/11 12:21:22;;;;;;;4.25;3.00;;;21.00;60.10;;;;;;5108952;28;20273;-53
2021/12/11 12:23:53;;;;;;;3.00;2.53;;;20.90;60.00;;;;;;5109589;28;20280;-56
2021/12/11 12:26:26;;;;;;;4.32;2.72;;;20.90;60.10;;;;;;5104237;22;20309;-53
2021/12/11 12:28:59;;;;;;;5.68;3.08;;;20.90;60.10;;;;;;5036398;28;20211;-48
2021/12/11 12:31:32;;;;;;;5.47;3.00;;;20.90;60.10;;;;;;5012791;28;20606;-43
2021/12/11 12:34:05;;;;;;;3.88;2.67;;;20.90;60.10;;;;;;5013249;28;20197;-52
2021/12/11 12:36:37;;;;;;;4.82;3.03;;;20.90;60.10;;;;;;5024847;28;20302;-52
2021/12/11 12:39:08;;;;;;;5.32;3.13;;;20.90;60.10;;;;;;5027039;28;20243;-50
2021/12/11 12:41:44;;;;;;;3.33;2.70;;;20.90;60.00;;;;;;5041631;28;20867;-50
2021/12/11 12:44:19;;;;;;;3.97;2.70;;;20.80;59.90;;;;;;5027289;28;20231;-51
2021/12/11 12:46:57;;;;;;;4.50;2.70;;;20.80;59.90;;;;;;5025876;28;20747;-46
2021/12/11 12:49:33;;;;;;;3.97;2.60;;;20.80;59.90;;;;;;5026830;28;20196;-47
2021/12/11 12:52:08;;;;;;;4.65;2.90;;;20.80;59.90;;;;;;5027668;28;20825;-48
2021/12/11 12:54:39;;;;;;;4.80;2.70;;;20.80;59.90;;;;;;5028390;28;20711;-50
2021/12/11 12:57:17;;;;;;;4.15;2.80;;;20.80;59.90;;;;;;5027256;28;20329;-50
2021/12/11 12:59:54;;;;;;;4.05;2.78;;;20.80;59.90;;;;;;5026728;28;20694;-47
2021/12/11 13:02:26;;;;;;;3.53;2.60;;;20.80;60.00;;;;;;5015322;28;20290;-47
2021/12/11 13:05:03;;;;;;;3.20;2.72;;;20.70;60.60;;;;;;5023102;28;20278;-44
2021/12/11 13:07:34;;;;;;;3.03;2.38;;;20.70;60.00;;;;;;5027231;28;20247;-49
2021/12/11 13:10:10;;;;;;;4.03;2.50;;;20.80;60.00;;;;;;5025999;28;20282;-48
2021/12/11 13:12:42;;;;;;;3.17;2.28;;;20.70;59.90;;;;;;5026778;28;20730;-51
2021/12/11 13:15:17;;;;;;;2.35;2.15;;;20.70;60.00;;;;;;5013703;28;20298;-51
2021/12/11 13:17:50;;;;;;;3.50;2.70;;;20.70;60.00;;;;;;5028060;28;20306;-51
2021/12/11 13:20:28;;;;;;;3.75;2.50;;;20.70;60.00;;;;;;5027847;28;20200;-51
2021/12/11 13:22:59;;;;;;;3.30;2.20;;;20.70;59.90;;;;;;5028031;28;20283;-49
2021/12/11 13:25:40;;;;;;;4.28;2.72;;;20.70;59.90;;;;;;5043832;22;20735;-54
2021/12/11 13:28:14;;;;;;;3.45;2.33;;;20.70;59.90;;;;;;5029722;28;20691;-57
2021/12/11 13:30:48;;;;;;;3.08;2.25;;;20.70;59.90;;;;;;5045807;28;20290;-54
2021/12/11 13:33:20;;;;;;;4.00;2.40;;;20.60;59.90;;;;;;5047179;28;20285;-51
2021/12/11 13:35:55;;;;;;;2.47;2.28;;;20.60;59.80;;;;;;5046405;28;20303;-53